createdAt,value
2018-03-28T00:00:16.162Z,43.00
2018-03-28T00:02:43.930Z,32.70
2018-03-28T00:05:11.697Z,16.75
2018-03-28T00:07:39.449Z,14.65
2018-03-28T00:10:07.210Z,18.67
2018-03-28T00:12:34.987Z,21.80
2018-03-28T00:15:02.726Z,15.20
2018-03-28T00:17:30.474Z,26.98
2018-03-28T00:19:58.673Z,26.83
2018-03-28T00:22:26.490Z,23.17
2018-03-28T00:24:54.268Z,20.17
2018-03-28T00:27:22.524Z,17.85
2018-03-28T00:29:50.328Z,17.55
2018-03-28T00:32:18.210Z,17.83
2018-03-28T00:34:46.145Z,15.45
2018-03-28T00:37:13.947Z,21.52
2018-03-28T00:39:42.123Z,10.53
2018-03-28T00:42:10.752Z,10.20
2018-03-28T00:44:38.630Z,11.77
2018-03-28T00:47:06.437Z,17.92
2018-03-28T00:49:34.182Z,15.55
2018-03-28T00:52:01.925Z,10.80
2018-03-28T00:54:29.679Z,22.75
2018-03-28T00:56:57.515Z,22.67
2018-03-28T00:59:25.289Z,12.40
2018-03-28T01:01:53.049Z,24.87
2018-03-28T01:04:25.045Z,12.15
2018-03-28T01:06:52.840Z,22.65
2018-03-28T01:09:21.012Z,25.37
2018-03-28T01:11:48.755Z,34.47
2018-03-28T01:14:16.559Z,34.25
2018-03-28T01:16:44.317Z,49.80
2018-03-28T01:19:12.062Z,13.48
2018-03-28T01:21:40.258Z,15.55
2018-03-28T01:24:08.066Z,14.35
2018-03-28T01:26:35.863Z,13.32
2018-03-28T01:29:04.000Z,28.00
2018-03-28T01:31:31.808Z,18.00
2018-03-28T01:33:59.603Z,10.75
2018-03-28T01:36:27.355Z,16.65
2018-03-28T01:38:55.144Z,23.08
2018-03-28T01:41:22.943Z,26.87
2018-03-28T01:43:50.694Z,15.33
2018-03-28T01:46:18.482Z,19.98
2018-03-28T01:48:46.199Z,17.67
2018-03-28T01:51:14.021Z,19.08
2018-03-28T01:53:42.198Z,13.27
2018-03-28T01:56:09.933Z,15.63
2018-03-28T01:58:37.713Z,9.50
2018-03-28T02:01:05.468Z,9.35
2018-03-28T02:03:33.259Z,16.42
2018-03-28T02:06:01.010Z,21.65
2018-03-28T02:08:28.828Z,7.40
2018-03-28T02:10:56.619Z,7.60
2018-03-28T02:13:24.417Z,14.95
2018-03-28T02:15:52.242Z,8.57
2018-03-28T02:18:20.051Z,7.90
2018-03-28T02:20:47.874Z,14.65
2018-03-28T02:23:15.790Z,17.30
2018-03-28T02:25:43.564Z,19.87
2018-03-28T02:28:11.728Z,21.30
2018-03-28T02:30:39.578Z,20.92
2018-03-28T02:33:07.369Z,7.72
2018-03-28T02:35:35.163Z,7.72
2018-03-28T02:38:03.043Z,20.45
2018-03-28T02:40:30.783Z,15.55
2018-03-28T02:42:58.648Z,5.60
2018-03-28T02:45:26.826Z,15.50
2018-03-28T02:47:54.616Z,13.23
2018-03-28T02:50:22.421Z,6.47
2018-03-28T02:52:50.198Z,7.53
2018-03-28T02:55:17.999Z,10.90
2018-03-28T02:57:45.859Z,12.25
2018-03-28T03:00:13.904Z,8.33
2018-03-28T03:02:41.743Z,18.87
2018-03-28T03:05:09.558Z,8.60
2018-03-28T03:07:37.677Z,6.47
2018-03-28T03:10:05.434Z,6.53
2018-03-28T03:12:33.227Z,5.05
2018-03-28T03:15:01.034Z,10.95
2018-03-28T03:17:28.977Z,7.68
2018-03-28T03:19:57.256Z,9.57
2018-03-28T03:22:25.463Z,11.03
2018-03-28T03:24:53.339Z,11.93
2018-03-28T03:27:21.079Z,5.65
2018-03-28T03:29:49.250Z,6.87
2018-03-28T03:32:17.378Z,5.40
2018-03-28T03:34:45.083Z,5.18
2018-03-28T03:37:12.878Z,6.37
2018-03-28T03:39:40.632Z,14.97
2018-03-28T03:42:08.352Z,6.60
2018-03-28T03:44:36.134Z,8.20
2018-03-28T03:47:04.299Z,7.85
2018-03-28T03:49:32.083Z,6.00
2018-03-28T03:51:59.816Z,8.70
2018-03-28T03:54:27.609Z,6.40
2018-03-28T03:56:55.338Z,6.57
2018-03-28T03:59:23.132Z,4.87
2018-03-28T04:01:50.880Z,5.60
2018-03-28T04:04:18.740Z,4.60
2018-03-28T04:06:46.515Z,11.32
2018-03-28T04:09:14.495Z,10.05
2018-03-28T04:11:42.296Z,6.07
2018-03-28T04:14:10.097Z,5.97
2018-03-28T04:16:37.854Z,5.47
2018-03-28T04:19:05.621Z,4.90
2018-03-28T04:21:33.403Z,5.40
2018-03-28T04:24:01.201Z,5.50
2018-03-28T04:26:29.419Z,4.90
2018-03-28T04:28:57.261Z,5.67
2018-03-28T04:31:25.052Z,5.50
2018-03-28T04:33:52.954Z,5.30
2018-03-28T04:36:20.780Z,4.30
2018-03-28T04:38:48.517Z,4.78
2018-03-28T04:41:16.302Z,7.65
2018-03-28T04:43:44.068Z,5.10
2018-03-28T04:46:11.803Z,5.80
2018-03-28T04:48:39.531Z,8.55
2018-03-28T04:51:07.312Z,10.90
2018-03-28T04:53:35.146Z,9.70
2018-03-28T04:56:02.854Z,14.80
2018-03-28T04:58:31.931Z,18.85
2018-03-28T05:00:59.661Z,17.00
2018-03-28T05:03:27.422Z,17.67
2018-03-28T05:05:55.194Z,21.20
2018-03-28T05:08:23.843Z,19.95
2018-03-28T05:10:51.589Z,14.68
2018-03-28T05:13:19.755Z,9.30
2018-03-28T05:15:49.781Z,24.20
2018-03-28T05:18:17.478Z,27.42
2018-03-28T05:20:45.233Z,26.53
2018-03-28T05:23:12.980Z,30.92
2018-03-28T05:25:40.703Z,27.50
2018-03-28T05:28:08.528Z,27.50
2018-03-28T05:30:36.336Z,27.97
2018-03-28T05:33:04.060Z,34.72
2018-03-28T05:35:31.824Z,37.17
2018-03-28T05:37:59.574Z,38.07
2018-03-28T05:40:27.282Z,32.70
2018-03-28T05:42:55.006Z,37.65
2018-03-28T05:45:22.794Z,41.17
2018-03-28T05:47:50.547Z,49.33
2018-03-28T05:50:18.373Z,16.95
2018-03-28T05:52:46.125Z,30.07
2018-03-28T05:55:13.906Z,31.67
2018-03-28T05:57:41.666Z,48.20
2018-03-28T06:00:09.852Z,43.10
2018-03-28T06:02:38.013Z,55.03
2018-03-28T06:05:05.770Z,64.28
2018-03-28T06:07:33.624Z,43.20
2018-03-28T06:10:01.347Z,35.93
2018-03-28T06:12:29.166Z,61.00
2018-03-28T06:14:56.889Z,76.87
2018-03-28T06:17:24.651Z,74.80
2018-03-28T06:19:52.438Z,79.87
2018-03-28T06:22:20.277Z,55.20
2018-03-28T06:24:47.988Z,45.20
2018-03-28T06:27:15.790Z,51.97
2018-03-28T06:29:43.959Z,103.97
2018-03-28T06:32:12.279Z,101.50
2018-03-28T06:34:40.067Z,117.22
2018-03-28T06:37:07.798Z,83.10
2018-03-28T06:39:35.550Z,68.25
2018-03-28T06:42:03.352Z,96.55
2018-03-28T06:44:31.071Z,39.47
2018-03-28T06:46:58.773Z,131.80
2018-03-28T06:49:26.531Z,130.50
2018-03-28T06:51:54.335Z,143.70
2018-03-28T06:54:22.200Z,123.00
2018-03-28T06:56:50.406Z,135.52
2018-03-28T06:59:18.439Z,113.55
2018-03-28T07:01:46.302Z,119.72
2018-03-28T07:04:14.131Z,116.40
2018-03-28T07:06:42.332Z,123.40
2018-03-28T07:09:10.564Z,127.50
2018-03-28T07:11:38.929Z,122.03
2018-03-28T07:14:06.800Z,66.95
2018-03-28T07:16:35.207Z,131.80
2018-03-28T07:19:03.151Z,116.50
2018-03-28T07:21:31.007Z,81.60
2018-03-28T07:23:59.559Z,111.97
2018-03-28T07:26:27.925Z,121.70
2018-03-28T07:28:55.691Z,112.93
2018-03-28T07:31:23.878Z,123.07
2018-03-28T07:33:51.617Z,70.83
2018-03-28T07:36:19.386Z,116.70
2018-03-28T07:38:47.283Z,137.97
2018-03-28T07:41:15.058Z,121.70
2018-03-28T07:43:43.050Z,101.27
2018-03-28T07:46:11.312Z,113.30
2018-03-28T07:48:39.107Z,118.97
2018-03-28T07:51:06.859Z,102.68
2018-03-28T07:53:34.684Z,101.10
2018-03-28T07:56:02.482Z,67.73
2018-03-28T07:58:30.657Z,102.40
2018-03-28T08:00:58.354Z,101.97
2018-03-28T08:03:26.067Z,77.70
2018-03-28T08:05:53.957Z,108.13
2018-03-28T08:08:21.935Z,113.57
2018-03-28T08:10:49.763Z,109.87
2018-03-28T08:13:17.587Z,111.07
2018-03-28T08:15:45.295Z,91.33
2018-03-28T08:18:13.185Z,88.13
2018-03-28T08:20:40.906Z,100.33
2018-03-28T08:23:08.851Z,74.87
2018-03-28T08:25:36.618Z,89.67
2018-03-28T08:28:07.675Z,72.77
2018-03-28T08:30:35.464Z,90.30
2018-03-28T08:33:03.138Z,80.33
2018-03-28T08:35:31.354Z,91.23
2018-03-28T08:37:59.110Z,69.53
2018-03-28T08:40:26.937Z,77.43
2018-03-28T08:42:54.658Z,102.00
2018-03-28T08:45:22.482Z,60.20
2018-03-28T08:47:50.651Z,75.00
2018-03-28T08:50:18.390Z,93.10
2018-03-28T08:52:46.136Z,62.97
2018-03-28T08:55:13.863Z,68.10
2018-03-28T08:57:42.026Z,79.20
2018-03-28T09:00:14.162Z,62.97
2018-03-28T09:02:41.950Z,73.37
2018-03-28T09:05:09.732Z,51.47
2018-03-28T09:07:37.467Z,70.97
2018-03-28T09:10:05.174Z,80.70
2018-03-28T09:12:32.932Z,69.47
2018-03-28T09:15:01.149Z,87.43
2018-03-28T09:17:29.026Z,58.57
2018-03-28T09:19:56.947Z,62.97
2018-03-28T09:22:25.030Z,58.60
2018-03-28T09:24:53.075Z,66.40
2018-03-28T09:27:20.852Z,65.33
2018-03-28T09:29:49.061Z,67.80
2018-03-28T09:32:16.972Z,44.97
2018-03-28T09:34:44.726Z,65.93
2018-03-28T09:37:12.574Z,65.03
2018-03-28T09:39:40.418Z,50.50
2018-03-28T09:42:08.271Z,53.63
2018-03-28T09:44:36.134Z,55.10
2018-03-28T09:47:04.254Z,44.07
2018-03-28T09:49:32.036Z,50.50
2018-03-28T09:51:59.816Z,42.17
2018-03-28T09:54:27.619Z,49.20
2018-03-28T09:56:55.332Z,41.83
2018-03-28T09:59:23.069Z,54.20
2018-03-28T10:01:50.797Z,52.37
2018-03-28T10:04:18.509Z,38.97
2018-03-28T10:06:46.337Z,43.37
2018-03-28T10:09:14.482Z,43.43
2018-03-28T10:11:42.638Z,46.60
2018-03-28T10:14:10.855Z,48.30
2018-03-28T10:16:38.566Z,41.63
2018-03-28T10:19:06.334Z,49.97
2018-03-28T10:21:34.192Z,41.30
2018-03-28T10:24:01.961Z,40.80
2018-03-28T10:26:29.763Z,45.43
2018-03-28T10:28:57.636Z,42.70
2018-03-28T10:31:25.392Z,33.33
2018-03-28T10:33:53.553Z,34.60
2018-03-28T10:36:21.473Z,36.23
2018-03-28T10:38:49.162Z,34.60
2018-03-28T10:41:16.892Z,35.73
2018-03-28T10:43:44.621Z,32.90
2018-03-28T10:46:12.791Z,44.80
2018-03-28T10:48:40.984Z,42.97
2018-03-28T10:51:08.731Z,33.90
2018-03-28T10:53:36.909Z,39.37
2018-03-28T10:56:04.631Z,41.67
2018-03-28T10:58:32.381Z,35.57
2018-03-28T11:01:00.140Z,36.90
2018-03-28T11:03:27.968Z,34.70
2018-03-28T11:05:55.690Z,31.73
2018-03-28T11:08:23.455Z,28.17
2018-03-28T11:10:51.181Z,29.07
2018-03-28T11:13:19.019Z,29.60
2018-03-28T11:15:46.726Z,30.00
2018-03-28T11:18:14.497Z,31.90
2018-03-28T11:20:42.258Z,36.47
2018-03-28T11:23:10.035Z,27.53
2018-03-28T11:25:37.825Z,28.53
2018-03-28T11:28:05.627Z,24.77
2018-03-28T11:30:33.743Z,31.20
2018-03-28T11:33:01.518Z,28.10
2018-03-28T11:35:29.346Z,27.57
2018-03-28T11:37:57.110Z,29.47
2018-03-28T11:40:25.464Z,26.37
2018-03-28T11:42:53.238Z,27.43
2018-03-28T11:45:21.114Z,22.27
2018-03-28T11:47:48.939Z,17.60
2018-03-28T11:50:16.773Z,14.27
2018-03-28T11:52:44.513Z,13.80
2018-03-28T11:58:49.503Z,13.00
2018-03-28T12:01:17.462Z,13.97
2018-03-28T12:03:49.169Z,10.87
2018-03-28T12:06:18.320Z,13.63
2018-03-28T12:08:46.875Z,13.43
2018-03-28T12:11:14.872Z,10.53
2018-03-28T12:13:42.695Z,14.20
2018-03-28T12:16:10.902Z,12.93
2018-03-28T12:18:38.614Z,12.60
2018-03-28T12:21:06.331Z,14.80
2018-03-28T12:23:34.062Z,12.93
2018-03-28T12:26:01.846Z,14.10
2018-03-28T12:28:29.583Z,14.53
2018-03-28T12:30:57.378Z,15.93
2018-03-28T12:33:25.511Z,18.03
2018-03-28T12:35:53.368Z,15.90
2018-03-28T12:38:21.114Z,12.90
2018-03-28T12:40:48.952Z,13.20
2018-03-28T12:43:16.736Z,12.87
2018-03-28T12:45:44.613Z,12.20
2018-03-28T12:48:12.345Z,14.13
2018-03-28T12:50:40.092Z,13.83
2018-03-28T12:53:08.258Z,13.93
2018-03-28T12:55:36.173Z,13.87
2018-03-28T12:58:03.776Z,23.47
2018-03-28T13:00:31.516Z,17.63
2018-03-28T13:02:59.306Z,13.07
2018-03-28T13:05:27.094Z,13.50
2018-03-28T13:07:55.357Z,17.03
2018-03-28T13:10:23.015Z,13.47
2018-03-28T13:12:50.808Z,15.00
2018-03-28T13:15:18.995Z,14.07
2018-03-28T13:17:46.708Z,15.60
2018-03-28T13:20:14.463Z,15.03
2018-03-28T13:22:42.217Z,14.97
2018-03-28T13:25:09.949Z,25.40
2018-03-28T13:27:38.121Z,15.10
2018-03-28T13:30:05.955Z,15.60
2018-03-28T13:32:33.684Z,11.10
2018-03-28T13:35:01.438Z,13.60
2018-03-28T13:37:29.951Z,15.17
2018-03-28T13:39:57.693Z,13.23
2018-03-28T13:42:26.000Z,13.50
2018-03-28T13:44:53.892Z,19.83
2018-03-28T13:47:21.714Z,26.73
2018-03-28T13:49:49.503Z,22.17
2018-03-28T13:52:17.804Z,12.13
2018-03-28T13:54:45.912Z,13.73
2018-03-28T13:57:13.713Z,35.17
2018-03-28T13:59:41.470Z,21.00
2018-03-28T14:02:09.341Z,16.00
2018-03-28T14:04:37.115Z,63.20
2018-03-28T14:07:04.942Z,19.50
2018-03-28T14:09:33.881Z,30.00
2018-03-28T14:12:02.106Z,30.50
2018-03-28T14:14:29.890Z,20.27
2018-03-28T14:16:57.657Z,42.43
2018-03-28T14:19:25.446Z,26.70
2018-03-28T14:21:53.238Z,27.57
2018-03-28T14:24:20.947Z,21.40
2018-03-28T14:26:48.709Z,18.57
2018-03-28T14:29:16.441Z,22.50
2018-03-28T14:31:44.182Z,18.93
2018-03-28T14:34:11.914Z,39.17
2018-03-28T14:36:39.694Z,26.23
2018-03-28T14:39:07.435Z,20.90
2018-03-28T14:41:35.251Z,31.63
2018-03-28T14:44:03.474Z,29.03
2018-03-28T14:46:31.238Z,25.23
2018-03-28T14:48:59.026Z,21.83
2018-03-28T14:51:27.194Z,28.80
2018-03-28T14:53:56.954Z,20.50
2018-03-28T14:56:24.791Z,21.87
2018-03-28T14:58:52.543Z,32.43
2018-03-28T15:01:20.313Z,26.97
2018-03-28T15:03:49.999Z,23.00
2018-03-28T15:08:50.102Z,25.17
2018-03-28T15:11:23.028Z,23.07
2018-03-28T15:13:51.428Z,20.07
2018-03-28T15:16:19.992Z,21.73
2018-03-28T15:18:47.746Z,29.37
2018-03-28T15:21:15.736Z,23.40
2018-03-28T15:23:43.742Z,24.20
2018-03-28T15:26:11.941Z,22.77
2018-03-28T15:28:40.661Z,20.03
2018-03-28T15:31:08.464Z,24.27
2018-03-28T15:33:39.596Z,22.57
2018-03-28T15:36:07.782Z,22.17
2018-03-28T15:38:37.745Z,16.43
2018-03-28T15:41:06.129Z,21.37
2018-03-28T15:43:34.507Z,20.43
2018-03-28T15:46:02.316Z,19.30
2018-03-28T15:48:33.799Z,16.70
2018-03-28T15:51:02.774Z,19.87
2018-03-28T15:53:32.493Z,23.53
2018-03-28T15:56:01.184Z,29.67
2018-03-28T15:58:41.209Z,25.67
2018-03-28T16:01:10.244Z,21.02
2018-03-28T16:03:40.016Z,18.27
2018-03-28T16:06:08.983Z,17.57
2018-03-28T16:08:36.970Z,22.50
2018-03-28T16:11:05.018Z,27.13
2018-03-28T16:13:33.196Z,20.67
2018-03-28T16:16:01.046Z,17.27
2018-03-28T16:18:33.275Z,18.23
2018-03-28T16:21:01.351Z,20.47
2018-03-28T16:23:29.883Z,23.20
2018-03-28T16:26:01.328Z,21.00
2018-03-28T16:28:29.514Z,25.20
2018-03-28T16:30:57.357Z,18.30
2018-03-28T16:33:26.064Z,21.43
2018-03-28T16:35:53.859Z,36.40
2018-03-28T16:38:21.686Z,32.80
2018-03-28T16:40:49.461Z,16.97
2018-03-28T16:43:17.321Z,31.23
2018-03-28T16:45:45.037Z,32.47
2018-03-28T16:48:12.865Z,34.30
2018-03-28T16:50:40.708Z,16.33
2018-03-28T16:53:08.455Z,26.93
2018-03-28T16:55:36.326Z,20.37
2018-03-28T16:58:04.200Z,18.20
2018-03-28T17:00:32.122Z,23.40
2018-03-28T17:02:59.892Z,27.60
2018-03-28T17:05:27.665Z,24.57
2018-03-28T17:07:55.453Z,22.30
2018-03-28T17:10:23.300Z,17.77
2018-03-28T17:12:51.092Z,18.73
2018-03-28T17:15:18.905Z,21.37
2018-03-28T17:17:46.656Z,21.70
2018-03-28T17:20:14.499Z,18.87
2018-03-28T17:22:42.279Z,17.60
2018-03-28T17:25:10.050Z,22.70
2018-03-28T17:27:40.900Z,21.03
2018-03-28T17:30:08.746Z,15.70
2018-03-28T17:32:36.910Z,22.50
2018-03-28T17:35:04.639Z,18.67
2018-03-28T17:37:32.527Z,18.20
2018-03-28T17:40:00.335Z,16.23
2018-03-28T17:42:28.127Z,18.83
2018-03-28T17:45:08.693Z,22.90
2018-03-28T17:47:36.475Z,14.90
2018-03-28T17:50:04.232Z,14.70
2018-03-28T17:55:28.050Z,11.47
2018-03-28T17:57:55.982Z,11.63
2018-03-28T18:00:35.368Z,8.57
2018-03-28T18:03:03.148Z,9.50
2018-03-28T18:05:30.860Z,10.23
2018-03-28T18:07:58.985Z,6.97
2018-03-28T18:10:26.774Z,9.80
2018-03-28T18:12:54.851Z,71.47
2018-03-28T18:15:22.774Z,26.40
2018-03-28T18:17:51.602Z,30.00
2018-03-28T18:20:19.469Z,14.67
2018-03-28T18:22:47.207Z,15.17
2018-03-28T18:25:15.087Z,11.17
2018-03-28T18:27:42.850Z,10.33
2018-03-28T18:30:10.774Z,4.40
2018-03-28T18:32:46.517Z,7.30
2018-03-28T18:38:05.315Z,5.13
2018-03-28T18:40:33.376Z,4.67
2018-03-28T18:43:01.621Z,4.57
2018-03-28T18:45:29.308Z,5.77
2018-03-28T18:47:57.123Z,6.30
2018-03-28T18:50:24.891Z,5.83
2018-03-28T18:52:53.186Z,6.30
2018-03-28T18:55:21.648Z,7.10
2018-03-28T18:57:50.252Z,11.80
2018-03-28T19:00:17.909Z,7.20
2018-03-28T19:02:51.607Z,8.00
2018-03-28T19:05:19.280Z,8.87
2018-03-28T19:07:46.987Z,8.27
2018-03-28T19:10:14.641Z,8.53
2018-03-28T19:12:42.368Z,8.83
2018-03-28T19:15:10.027Z,9.97
2018-03-28T19:17:37.700Z,14.30
2018-03-28T19:20:05.366Z,20.40
2018-03-28T19:22:33.433Z,24.30
2018-03-28T19:25:01.543Z,22.07
2018-03-28T19:27:29.260Z,20.92
2018-03-28T19:29:56.929Z,15.38
2018-03-28T19:32:25.112Z,15.95
2018-03-28T19:34:53.339Z,16.12
2018-03-28T19:37:21.154Z,17.12
2018-03-28T19:39:48.933Z,17.05
2018-03-28T19:42:17.140Z,15.55
2018-03-28T19:44:44.955Z,14.50
2018-03-28T19:47:12.724Z,15.70
2018-03-28T19:49:40.518Z,13.85
2018-03-28T19:52:08.269Z,15.35
2018-03-28T19:54:52.705Z,16.65
2018-03-28T19:57:20.450Z,18.85
2018-03-28T19:59:48.250Z,18.08
2018-03-28T20:02:16.055Z,18.20
2018-03-28T20:04:43.814Z,18.33
2018-03-28T20:07:11.548Z,21.52
2018-03-28T20:09:39.692Z,21.87
2018-03-28T20:12:07.526Z,22.33
2018-03-28T20:14:35.291Z,22.98
2018-03-28T20:17:03.006Z,21.17
2018-03-28T20:19:30.756Z,21.95
2018-03-28T20:21:58.511Z,22.65
2018-03-28T20:24:26.296Z,25.05
2018-03-28T20:26:54.458Z,24.00
2018-03-28T20:29:22.236Z,25.65
2018-03-28T20:31:50.486Z,25.30
2018-03-28T20:34:18.348Z,27.33
2018-03-28T20:36:49.235Z,25.05
2018-03-28T20:39:17.455Z,26.12
2018-03-28T20:41:45.248Z,30.37
2018-03-28T20:44:13.050Z,31.00
2018-03-28T20:46:40.798Z,28.73
2018-03-28T20:49:08.510Z,23.62
2018-03-28T20:51:36.428Z,25.55
2018-03-28T20:54:04.143Z,28.17
2018-03-28T20:56:32.693Z,25.15
2018-03-28T20:59:00.399Z,25.05
2018-03-28T21:01:28.230Z,24.08
2018-03-28T21:03:56.033Z,27.52
2018-03-28T21:06:23.782Z,28.75
2018-03-28T21:08:51.510Z,27.65
2018-03-28T21:11:19.659Z,26.23
2018-03-28T21:13:47.409Z,30.30
2018-03-28T21:16:15.205Z,27.85
2018-03-28T21:18:43.361Z,27.10
2018-03-28T21:21:11.086Z,25.73
2018-03-28T21:23:38.822Z,26.05
2018-03-28T21:26:06.635Z,30.23
2018-03-28T21:28:34.446Z,24.15
2018-03-28T21:31:02.144Z,23.12
2018-03-28T21:33:29.869Z,24.33
2018-03-28T21:35:58.065Z,24.85
2018-03-28T21:38:25.795Z,21.50
2018-03-28T21:40:53.551Z,21.23
2018-03-28T21:43:21.292Z,19.08
2018-03-28T21:45:49.074Z,19.12
2018-03-28T21:48:16.771Z,19.27
2018-03-28T21:50:44.509Z,20.70
2018-03-28T21:53:12.263Z,18.37
2018-03-28T21:55:40.010Z,20.17
2018-03-28T21:58:07.804Z,17.92
2018-03-28T22:00:35.540Z,19.55
2018-03-28T22:03:04.175Z,16.95
2018-03-28T22:05:32.508Z,17.52
2018-03-28T22:08:00.257Z,19.12
2018-03-28T22:10:27.973Z,19.58
2018-03-28T22:12:56.115Z,16.90
2018-03-28T22:15:23.835Z,18.30
2018-03-28T22:17:51.599Z,20.58
2018-03-28T22:20:19.306Z,19.27
2018-03-28T22:22:47.073Z,18.58
2018-03-28T22:25:14.852Z,16.35
2018-03-28T22:27:42.679Z,15.88
2018-03-28T22:30:10.424Z,14.55
2018-03-28T22:32:38.151Z,17.17
2018-03-28T22:35:05.875Z,15.95
2018-03-28T22:37:33.600Z,16.00
2018-03-28T22:40:01.714Z,17.55
2018-03-28T22:42:29.422Z,20.37
2018-03-28T22:44:57.158Z,21.20
2018-03-28T22:47:24.898Z,18.00
2018-03-28T22:49:52.706Z,15.98
2018-03-28T22:52:20.404Z,15.48
2018-03-28T22:54:48.149Z,15.02
2018-03-28T22:57:16.304Z,16.83
2018-03-28T22:59:44.048Z,16.90
2018-03-28T23:02:11.785Z,18.55
2018-03-28T23:04:39.551Z,21.62
2018-03-28T23:07:07.326Z,26.40
2018-03-28T23:09:35.078Z,26.23
2018-03-28T23:12:02.913Z,27.58
2018-03-28T23:14:30.627Z,23.90
2018-03-28T23:16:58.403Z,30.50
2018-03-28T23:19:26.156Z,28.25
2018-03-28T23:21:53.954Z,27.83
2018-03-28T23:24:21.710Z,24.17
2018-03-28T23:26:49.439Z,24.42
2018-03-28T23:29:17.193Z,25.35
2018-03-28T23:31:44.932Z,21.98
2018-03-28T23:34:13.075Z,22.42
2018-03-28T23:36:40.818Z,18.00
2018-03-28T23:39:08.526Z,18.95
2018-03-28T23:41:36.301Z,18.73
2018-03-28T23:44:04.004Z,16.83
2018-03-28T23:46:31.776Z,18.70
2018-03-28T23:48:59.550Z,17.02
2018-03-28T23:51:27.298Z,19.17
2018-03-28T23:53:54.978Z,17.33
2018-03-28T23:56:22.971Z,17.45
2018-03-28T23:58:50.739Z,16.33
